Time;durP1;ratioP1;P1;durP2;ratioP2;P2;SDS_P1;SDS_P2;PMS_P1;PMS_P2;Temp;Humidity;BMP_temperature;BMP_pressure;BME280_temperature;BME280_humidity;BME280_pressure;Samples;Min_cycle;Max_cycle;Signal;HPM_P1;HPM_P2
2023/09/13 00:02:08;;;;;;;15.57;14.00;;;20.00;99.90;;;;;;5081554;28;20537;-76
2023/09/13 00:04:33;;;;;;;15.57;14.07;;;20.10;99.90;;;;;;5096167;28;20214;-76
2023/09/13 00:06:59;;;;;;;16.27;14.70;;;20.10;99.90;;;;;;5097137;28;20179;-76
2023/09/13 00:09:25;;;;;;;15.67;14.07;;;20.10;99.90;;;;;;5097300;28;20181;-77
2023/09/13 00:11:51;;;;;;;14.90;13.50;;;20.00;99.90;;;;;;5093730;28;20171;-75
2023/09/13 00:14:16;;;;;;;15.43;14.03;;;20.10;99.90;;;;;;5072970;28;20202;-78
2023/09/13 00:16:42;;;;;;;15.70;14.20;;;20.00;99.90;;;;;;5092572;28;20179;-77
2023/09/13 00:19:08;;;;;;;16.27;14.57;;;20.00;99.90;;;;;;5079329;28;20224;-78
2023/09/13 00:21:34;;;;;;;15.60;14.13;;;20.00;99.90;;;;;;5061165;28;20665;-78
2023/09/13 00:23:59;;;;;;;15.67;14.07;;;20.00;99.90;;;;;;5080349;28;20178;-77
2023/09/13 00:26:25;;;;;;;15.60;14.07;;;20.00;99.90;;;;;;5090570;28;20539;-77
2023/09/13 00:28:51;;;;;;;15.53;14.10;;;20.00;99.90;;;;;;5077852;28;20220;-77
2023/09/13 00:31:17;;;;;;;15.53;13.80;;;20.00;99.90;;;;;;5077579;28;20163;-77
2023/09/13 00:33:43;;;;;;;15.37;13.87;;;20.00;99.90;;;;;;5058439;28;20230;-76
2023/09/13 00:36:09;;;;;;;16.00;14.50;;;20.00;99.90;;;;;;5077491;28;20183;-76
2023/09/13 00:38:35;;;;;;;15.67;14.27;;;20.00;99.90;;;;;;5077755;28;20167;-76
2023/09/13 00:41:01;;;;;;;14.47;13.17;;;20.00;99.90;;;;;;5078468;28;20178;-76
2023/09/13 00:43:26;;;;;;;15.10;13.53;;;20.00;99.90;;;;;;5078405;28;20217;-76
2023/09/13 00:45:52;;;;;;;16.17;14.63;;;20.00;99.90;;;;;;5077546;28;20202;-77
2023/09/13 00:48:18;;;;;;;15.27;13.90;;;20.00;99.90;;;;;;5077697;28;20250;-80
2023/09/13 00:50:47;;;;;;;15.00;13.50;;;20.00;99.90;;;;;;5077678;28;20541;-75
2023/09/13 00:53:13;;;;;;;15.20;13.80;;;20.10;99.90;;;;;;5071827;28;20247;-77
2023/09/13 00:55:40;;;;;;;15.33;13.80;;;20.10;99.90;;;;;;5077470;28;20262;-77
2023/09/13 00:58:06;;;;;;;14.93;13.53;;;20.00;99.90;;;;;;5075923;28;20175;-76
2023/09/13 01:00:34;;;;;;;15.13;13.83;;;20.00;99.90;;;;;;5075569;28;20171;-75
2023/09/13 01:03:01;;;;;;;17.73;13.57;;;20.10;99.90;;;;;;5077837;28;20248;-76
2023/09/13 01:05:29;;;;;;;15.30;13.90;;;20.10;99.90;;;;;;5083068;28;20199;-77
2023/09/13 01:07:56;;;;;;;15.07;13.63;;;20.10;99.90;;;;;;5077578;28;20224;-76
2023/09/13 01:10:22;;;;;;;15.33;13.77;;;20.00;99.90;;;;;;5077333;28;20197;-76
2023/09/13 01:12:48;;;;;;;16.40;14.77;;;20.00;99.90;;;;;;5076416;28;20639;-78
2023/09/13 01:15:16;;;;;;;16.07;14.67;;;20.00;99.90;;;;;;5059089;28;20179;-78
2023/09/13 01:17:57;;;;;;;15.33;13.93;;;20.00;99.90;;;;;;5059245;28;20186;-76
2023/09/13 01:20:48;;;;;;;15.40;13.83;;;19.90;99.90;;;;;;5058822;28;20179;-76
2023/09/13 01:23:43;;;;;;;16.17;13.67;;;19.90;99.90;;;;;;5077492;28;20250;-76
2023/09/13 01:26:45;;;;;;;15.60;14.10;;;19.90;99.90;;;;;;5077009;28;20195;-76
2023/09/13 01:29:16;;;;;;;15.47;13.80;;;19.90;99.90;;;;;;5077418;28;20167;-77
2023/09/13 01:31:44;;;;;;;15.77;14.17;;;19.90;99.90;;;;;;5078458;28;20174;-77
2023/09/13 01:34:10;;;;;;;15.40;13.80;;;19.90;99.90;;;;;;5079143;28;20225;-77
2023/09/13 01:36:37;;;;;;;16.17;14.57;;;19.90;99.90;;;;;;5088306;28;20168;-76
2023/09/13 01:39:04;;;;;;;15.73;14.23;;;19.90;99.90;;;;;;5077947;28;20177;-75
2023/09/13 01:41:50;;;;;;;16.03;14.43;;;19.90;99.90;;;;;;5064387;28;20174;-76
2023/09/13 01:44:17;;;;;;;15.37;13.87;;;19.90;99.90;;;;;;5081822;28;20207;-74
2023/09/13 01:46:45;;;;;;;17.03;14.13;;;19.80;99.90;;;;;;5080808;28;20206;-77
2023/09/13 01:49:13;;;;;;;16.70;15.10;;;19.70;99.90;;;;;;5081349;28;20174;-77
2023/09/13 01:51:40;;;;;;;15.93;14.43;;;19.70;99.90;;;;;;5047215;28;20534;-77
2023/09/13 01:54:06;;;;;;;14.83;13.47;;;19.60;99.90;;;;;;5090893;28;20197;-77
2023/09/13 01:56:32;;;;;;;16.83;14.13;;;19.50;99.90;;;;;;5090322;28;20623;-76
2023/09/13 01:58:57;;;;;;;14.50;13.20;;;19.60;99.90;;;;;;5063010;28;20187;-77
2023/09/13 02:01:23;;;;;;;16.17;12.97;;;19.60;99.90;;;;;;5070964;28;20664;-77
2023/09/13 02:03:50;;;;;;;15.50;14.00;;;19.60;99.90;;;;;;5088977;28;20238;-76
2023/09/13 02:06:16;;;;;;;15.40;13.90;;;19.50;99.90;;;;;;5083709;28;20532;-76
2023/09/13 02:08:42;;;;;;;13.93;12.53;;;19.50;99.90;;;;;;5083979;28;20199;-77
2023/09/13 02:11:09;;;;;;;14.57;13.10;;;19.50;99.90;;;;;;5065674;28;20247;-76
2023/09/13 02:13:35;;;;;;;13.93;12.53;;;19.40;99.90;;;;;;5082439;28;20178;-78
2023/09/13 02:16:01;;;;;;;14.33;12.93;;;19.40;99.90;;;;;;5081471;28;20175;-76
2023/09/13 02:18:27;;;;;;;14.70;13.20;;;19.40;99.90;;;;;;5080868;28;20167;-76
2023/09/13 02:20:55;;;;;;;14.00;12.70;;;19.40;99.90;;;;;;5080758;28;20195;-76
2023/09/13 02:23:21;;;;;;;15.07;13.67;;;19.30;99.90;;;;;;5065745;28;20163;-79
2023/09/13 02:25:47;;;;;;;14.57;13.17;;;19.40;99.90;;;;;;5062654;28;20210;-78
2023/09/13 02:28:13;;;;;;;14.00;12.60;;;19.30;99.90;;;;;;5080577;28;20179;-76
2023/09/13 02:30:40;;;;;;;15.07;13.60;;;19.30;99.90;;;;;;5080391;28;20199;-76
2023/09/13 02:33:07;;;;;;;15.73;14.23;;;19.30;99.90;;;;;;5079748;28;20171;-75
2023/09/13 02:35:35;;;;;;;15.93;14.27;;;19.20;99.90;;;;;;5080020;28;20168;-76
2023/09/13 02:38:01;;;;;;;17.50;15.17;;;19.20;99.90;;;;;;5062082;28;20597;-77
2023/09/13 02:40:27;;;;;;;17.07;14.53;;;19.30;99.90;;;;;;5080955;28;20202;-78
2023/09/13 02:42:53;;;;;;;16.20;14.80;;;19.30;99.90;;;;;;5077850;28;20182;-77
2023/09/13 02:45:19;;;;;;;16.40;14.70;;;19.30;99.90;;;;;;5083740;28;20623;-77
2023/09/13 02:47:46;;;;;;;16.60;15.03;;;19.20;99.90;;;;;;5080000;28;20254;-75
2023/09/13 02:50:13;;;;;;;17.17;15.57;;;19.10;99.90;;;;;;5079281;28;20536;-78
2023/09/13 02:52:40;;;;;;;17.60;15.73;;;19.10;99.90;;;;;;5064280;28;20286;-78
2023/09/13 02:55:06;;;;;;;18.30;16.50;;;19.20;99.90;;;;;;5080509;28;20171;-78
2023/09/13 02:57:32;;;;;;;17.77;16.07;;;19.20;99.90;;;;;;5058969;28;20174;-75
2023/09/13 02:59:59;;;;;;;19.77;17.67;;;19.30;99.90;;;;;;5078691;28;20183;-77
2023/09/13 03:02:25;;;;;;;19.97;16.83;;;19.20;99.90;;;;;;5079034;28;20594;-76
2023/09/13 03:04:52;;;;;;;17.77;16.07;;;19.30;99.90;;;;;;5079311;28;20207;-77
2023/09/13 03:07:19;;;;;;;18.47;16.67;;;19.30;99.90;;;;;;5063879;28;20175;-77
2023/09/13 03:09:46;;;;;;;17.17;15.37;;;19.30;99.90;;;;;;5081370;28;20174;-76
2023/09/13 03:12:13;;;;;;;17.43;15.73;;;19.30;99.90;;;;;;5079112;28;20167;-76
2023/09/13 03:14:39;;;;;;;16.80;15.20;;;19.40;99.90;;;;;;5060975;28;20222;-76
2023/09/13 03:17:06;;;;;;;17.30;15.63;;;19.40;99.90;;;;;;5044517;28;20175;-75
2023/09/13 03:19:32;;;;;;;17.30;15.60;;;19.40;99.90;;;;;;5086789;28;20178;-77
2023/09/13 03:21:59;;;;;;;16.77;15.17;;;19.40;99.90;;;;;;5081378;28;20233;-76
2023/09/13 03:24:25;;;;;;;16.70;15.10;;;19.40;99.90;;;;;;5079637;28;20199;-75
2023/09/13 03:26:52;;;;;;;17.83;16.13;;;19.40;99.90;;;;;;5080300;28;20562;-75
2023/09/13 03:29:17;;;;;;;16.53;14.93;;;19.30;99.90;;;;;;5092428;28;20167;-76
2023/09/13 03:31:43;;;;;;;17.50;15.90;;;19.30;99.90;;;;;;5088647;28;20265;-77
2023/09/13 03:34:09;;;;;;;17.03;15.23;;;19.30;99.90;;;;;;5064200;28;20280;-77
2023/09/13 03:36:35;;;;;;;16.77;15.17;;;19.30;99.90;;;;;;5085015;28;20179;-78
2023/09/13 03:39:01;;;;;;;16.73;15.10;;;19.30;99.90;;;;;;5090761;28;20205;-77
2023/09/13 03:41:27;;;;;;;16.93;15.33;;;19.30;99.90;;;;;;5078615;28;20250;-75
2023/09/13 03:43:53;;;;;;;18.10;16.30;;;19.30;99.90;;;;;;5060429;28;20171;-78
2023/09/13 03:46:20;;;;;;;17.53;15.83;;;19.30;99.90;;;;;;5078750;28;20179;-76
2023/09/13 03:48:46;;;;;;;17.77;16.13;;;19.30;99.90;;;;;;5061642;28;20178;-77
2023/09/13 03:51:11;;;;;;;18.27;16.47;;;19.30;99.90;;;;;;5078629;28;20179;-76
2023/09/13 03:53:41;;;;;;;19.30;16.13;;;19.30;99.90;;;;;;5078625;28;20258;-77
2023/09/13 03:56:06;;;;;;;16.60;15.10;;;19.30;99.90;;;;;;5079161;28;20642;-75
2023/09/13 03:58:35;;;;;;;16.53;14.93;;;19.30;99.90;;;;;;5078466;28;20224;-75
2023/09/13 04:01:04;;;;;;;17.33;15.63;;;19.20;99.90;;;;;;5078947;28;20175;-75
2023/09/13 04:03:32;;;;;;;16.90;15.30;;;19.20;99.90;;;;;;5060746;28;20179;-77
2023/09/13 04:06:00;;;;;;;17.60;14.80;;;19.20;99.90;;;;;;5080789;28;20229;-76
2023/09/13 04:08:26;;;;;;;15.57;14.10;;;19.20;99.90;;;;;;5080753;28;20167;-76
2023/09/13 04:10:52;;;;;;;16.10;14.57;;;18.90;99.90;;;;;;5078537;28;20234;-76
2023/09/13 04:13:17;;;;;;;15.97;14.40;;;19.20;99.90;;;;;;5078785;28;20175;-78
2023/09/13 04:15:44;;;;;;;15.33;14.03;;;19.30;99.90;;;;;;5060613;28;20265;-76
2023/09/13 04:18:10;;;;;;;16.30;14.70;;;19.20;99.90;;;;;;5079905;28;20671;-75
2023/09/13 04:20:36;;;;;;;15.30;14.00;;;19.20;99.90;;;;;;5073826;28;20198;-76
2023/09/13 04:23:03;;;;;;;15.20;13.80;;;19.20;99.90;;;;;;5074251;28;20190;-75
2023/09/13 04:25:29;;;;;;;16.10;14.70;;;19.20;99.90;;;;;;5073638;28;20253;-77
2023/09/13 04:27:55;;;;;;;16.90;15.10;;;19.20;99.90;;;;;;5074274;28;20634;-77
2023/09/13 04:30:21;;;;;;;17.03;15.40;;;19.20;99.90;;;;;;5081450;28;20175;-77
2023/09/13 04:32:47;;;;;;;16.93;13.97;;;19.30;99.90;;;;;;5087050;28;20175;-78
2023/09/13 04:35:13;;;;;;;16.03;14.47;;;19.30;99.90;;;;;;5055816;28;20611;-77
2023/09/13 04:37:39;;;;;;;15.63;14.17;;;19.20;99.90;;;;;;5057664;28;20229;-77
2023/09/13 04:40:05;;;;;;;16.53;15.03;;;19.30;99.90;;;;;;5079017;28;20179;-78
2023/09/13 04:42:36;;;;;;;17.77;16.00;;;19.30;99.90;;;;;;5075065;28;20171;-77
2023/09/13 04:45:03;;;;;;;16.07;14.67;;;19.30;99.90;;;;;;5073667;28;20225;-76
2023/09/13 04:47:28;;;;;;;16.57;14.67;;;19.30;99.90;;;;;;5073731;28;20262;-76
2023/09/13 04:49:54;;;;;;;15.63;14.23;;;19.30;99.90;;;;;;5073439;28;20225;-78
2023/09/13 04:52:20;;;;;;;16.13;14.50;;;19.30;99.90;;;;;;5091428;28;20151;-77
2023/09/13 04:54:46;;;;;;;18.33;15.87;;;19.40;99.90;;;;;;5097503;28;20210;-78
2023/09/13 04:57:12;;;;;;;16.33;14.73;;;19.40;99.90;;;;;;5094296;28;20167;-77
2023/09/13 04:59:45;;;;;;;16.57;14.97;;;19.40;99.90;;;;;;5095009;28;20183;-76
2023/09/13 05:02:12;;;;;;;17.13;15.33;;;19.50;99.90;;;;;;5097154;28;20178;-76
2023/09/13 05:04:38;;;;;;;18.90;15.73;;;19.50;99.90;;;;;;5089464;28;20203;-77
2023/09/13 05:07:05;;;;;;;19.27;15.63;;;19.40;99.90;;;;;;5096562;28;20405;-76
2023/09/13 05:09:31;;;;;;;17.30;15.60;;;19.50;99.90;;;;;;5094769;28;20163;-77
2023/09/13 05:11:57;;;;;;;18.53;15.97;;;19.40;99.90;;;;;;5092525;28;20220;-74
2023/09/13 05:14:23;;;;;;;17.17;15.47;;;19.50;99.90;;;;;;5094792;28;20179;-75
2023/09/13 05:16:49;;;;;;;16.97;15.27;;;19.50;99.90;;;;;;5093578;28;20201;-77
2023/09/13 05:19:14;;;;;;;15.63;14.13;;;19.50;99.90;;;;;;5092032;28;20230;-76
2023/09/13 05:21:41;;;;;;;17.23;15.53;;;19.60;99.90;;;;;;5079738;28;20186;-77
2023/09/13 05:24:07;;;;;;;17.37;15.63;;;19.60;99.90;;;;;;5078844;28;20179;-76
2023/09/13 05:26:33;;;;;;;17.43;15.73;;;19.60;99.90;;;;;;5078258;28;20175;-74
2023/09/13 05:28:59;;;;;;;16.27;14.57;;;19.60;99.90;;;;;;5078194;28;20172;-76
2023/09/13 05:31:24;;;;;;;17.83;16.10;;;19.60;99.90;;;;;;5077815;28;20186;-74
2023/09/13 05:33:50;;;;;;;15.67;14.07;;;19.70;99.90;;;;;;5077378;28;20664;-76
2023/09/13 05:36:16;;;;;;;15.93;14.30;;;19.70;99.90;;;;;;5078106;28;20220;-76
2023/09/13 05:38:42;;;;;;;15.47;13.87;;;19.80;99.90;;;;;;5080896;28;20480;-77
2023/09/13 05:41:09;;;;;;;17.47;14.13;;;19.80;99.90;;;;;;5081635;28;20178;-76
2023/09/13 05:43:40;;;;;;;14.53;13.17;;;19.80;99.90;;;;;;5077434;28;20183;-79
2023/09/13 05:46:07;;;;;;;18.10;13.27;;;19.70;99.90;;;;;;5077351;28;20213;-77
2023/09/13 05:48:33;;;;;;;14.37;13.07;;;19.70;99.90;;;;;;5077571;28;20174;-75
2023/09/13 05:50:59;;;;;;;15.97;12.97;;;19.60;99.90;;;;;;5076981;28;20229;-76
2023/09/13 05:53:25;;;;;;;14.63;13.23;;;19.70;99.90;;;;;;5081965;28;20174;-76
2023/09/13 05:55:51;;;;;;;15.93;13.10;;;19.70;99.90;;;;;;5087630;28;20183;-77
2023/09/13 05:58:18;;;;;;;13.83;12.50;;;19.80;99.90;;;;;;5083081;28;20182;-76
2023/09/13 06:00:49;;;;;;;14.60;13.17;;;19.80;99.90;;;;;;5078571;28;20182;-76
2023/09/13 06:03:19;;;;;;;17.10;13.67;;;19.90;99.90;;;;;;5084202;28;20179;-76
2023/09/13 06:05:50;;;;;;;15.47;14.00;;;20.00;99.90;;;;;;5083815;28;20202;-76
2023/09/13 06:08:17;;;;;;;19.57;16.13;;;19.90;99.90;;;;;;5080429;28;20167;-75
2023/09/13 06:10:44;;;;;;;17.97;15.37;;;19.80;99.90;;;;;;5083754;28;20281;-76
2023/09/13 06:13:10;;;;;;;17.07;15.27;;;19.70;99.90;;;;;;5080391;28;20171;-76
2023/09/13 06:15:35;;;;;;;18.63;16.10;;;19.80;99.90;;;;;;5077344;28;20171;-76
2023/09/13 06:18:01;;;;;;;19.90;16.20;;;19.90;99.90;;;;;;5076891;28;20175;-76
2023/09/13 06:20:27;;;;;;;18.00;16.10;;;19.90;99.90;;;;;;5087953;28;20179;-78
2023/09/13 06:22:54;;;;;;;17.73;14.73;;;19.90;99.90;;;;;;5083780;28;20179;-75
2023/09/13 06:25:20;;;;;;;20.07;16.50;;;20.10;99.90;;;;;;5076054;28;20707;-75
2023/09/13 06:27:46;;;;;;;17.23;15.63;;;20.10;99.90;;;;;;5075869;28;20163;-78
2023/09/13 06:30:15;;;;;;;19.13;14.80;;;20.20;99.90;;;;;;5077411;28;20183;-77
2023/09/13 06:32:41;;;;;;;16.53;13.77;;;20.30;99.90;;;;;;5078077;28;20230;-78
2023/09/13 06:35:13;;;;;;;16.17;14.60;;;20.40;99.90;;;;;;5081302;28;20694;-77
2023/09/13 06:37:39;;;;;;;17.67;12.70;;;20.50;99.90;;;;;;5079010;28;20156;-76
2023/09/13 06:40:06;;;;;;;13.90;12.60;;;20.50;99.90;;;;;;5076402;28;20171;-78
2023/09/13 06:42:32;;;;;;;14.47;12.30;;;20.50;99.90;;;;;;5077742;28;20163;-78
2023/09/13 06:44:59;;;;;;;13.57;12.17;;;20.60;99.90;;;;;;5085054;28;20203;-77
2023/09/13 06:47:28;;;;;;;14.23;12.80;;;20.60;99.90;;;;;;5087531;28;20152;-77
2023/09/13 06:49:54;;;;;;;15.10;13.17;;;20.70;99.90;;;;;;5077887;28;20264;-77
2023/09/13 06:52:20;;;;;;;15.70;13.80;;;20.70;99.90;;;;;;5091253;28;20168;-77
2023/09/13 06:54:46;;;;;;;15.63;13.63;;;20.80;99.90;;;;;;5078332;28;20179;-77
2023/09/13 06:57:12;;;;;;;17.10;14.60;;;22.10;99.90;;;;;;5076812;28;20176;-76
2023/09/13 06:59:38;;;;;;;16.90;14.03;;;20.70;99.90;;;;;;5058479;28;20179;-76
2023/09/13 07:02:08;;;;;;;18.67;14.97;;;20.60;99.90;;;;;;5077339;28;20266;-79
2023/09/13 07:04:34;;;;;;;18.43;14.33;;;20.60;99.90;;;;;;5085273;28;20225;-77
2023/09/13 07:07:00;;;;;;;17.63;14.33;;;20.50;99.90;;;;;;5077492;28;20635;-76
2023/09/13 07:09:25;;;;;;;19.47;16.57;;;20.60;99.90;;;;;;5076936;28;20177;-76
2023/09/13 07:11:51;;;;;;;22.40;16.20;;;20.50;99.90;;;;;;5077235;28;20248;-75
2023/09/13 07:14:18;;;;;;;21.13;14.93;;;20.60;99.90;;;;;;5077081;28;20167;-77
2023/09/13 07:16:43;;;;;;;18.20;15.07;;;20.60;99.90;;;;;;5077279;28;20692;-76
2023/09/13 07:19:09;;;;;;;22.10;15.57;;;20.50;99.90;;;;;;5076023;28;20179;-76
2023/09/13 07:21:35;;;;;;;17.93;16.17;;;20.60;99.90;;;;;;5075763;28;20225;-76
2023/09/13 07:24:00;;;;;;;22.73;16.63;;;20.70;99.90;;;;;;5075688;28;20229;-75
2023/09/13 07:26:26;;;;;;;23.20;17.30;;;20.70;99.90;;;;;;5058106;28;20191;-77
2023/09/13 07:28:52;;;;;;;25.33;18.40;;;20.70;99.90;;;;;;5075928;28;20191;-77
2023/09/13 07:31:18;;;;;;;23.50;18.20;;;20.60;99.90;;;;;;5075170;28;20163;-77
2023/09/13 07:33:43;;;;;;;23.03;17.87;;;20.60;99.90;;;;;;5078487;28;20215;-78
2023/09/13 07:36:09;;;;;;;19.53;17.30;;;20.60;99.90;;;;;;5079488;28;20653;-77
2023/09/13 07:38:37;;;;;;;23.97;18.00;;;20.80;99.90;;;;;;5075389;28;20201;-78
2023/09/13 07:41:03;;;;;;;20.63;16.43;;;21.00;99.90;;;;;;5057202;28;20631;-77
2023/09/13 07:43:29;;;;;;;20.17;17.70;;;21.10;99.90;;;;;;5088535;28;20182;-78
2023/09/13 07:45:57;;;;;;;21.03;17.00;;;21.30;99.90;;;;;;5083112;28;20218;-81
2023/09/13 07:48:25;;;;;;;22.00;16.57;;;21.50;99.90;;;;;;5059759;28;20205;-77
2023/09/13 07:50:51;;;;;;;21.23;18.20;;;21.60;99.90;;;;;;5077410;28;20700;-76
2023/09/13 07:53:17;;;;;;;23.77;18.40;;;21.70;99.90;;;;;;5057197;28;20179;-78
2023/09/13 07:55:43;;;;;;;20.70;16.63;;;21.80;99.90;;;;;;5075034;28;20164;-77
2023/09/13 07:58:08;;;;;;;22.63;16.40;;;22.00;99.90;;;;;;5075529;28;20254;-78
2023/09/13 08:00:35;;;;;;;22.23;16.27;;;22.20;99.90;;;;;;5075463;28;20179;-80
2023/09/13 08:03:02;;;;;;;21.07;15.60;;;22.20;99.90;;;;;;5081701;28;20167;-77
2023/09/13 08:05:28;;;;;;;19.57;15.67;;;22.40;99.90;;;;;;5063614;28;20667;-76
2023/09/13 08:08:00;;;;;;;19.42;14.90;;;22.50;99.90;;;;;;5077376;28;20225;-77
2023/09/13 08:10:26;;;;;;;15.40;13.75;;;22.90;99.90;;;;;;5064086;28;20225;-78
2023/09/13 08:12:52;;;;;;;23.52;15.40;;;22.80;99.90;;;;;;5060876;28;20187;-76
2023/09/13 08:15:18;;;;;;;21.58;16.30;;;23.00;99.90;;;;;;5075277;28;20626;-78
2023/09/13 08:17:44;;;;;;;24.67;15.57;;;23.10;99.90;;;;;;5084129;28;20174;-78
2023/09/13 08:20:11;;;;;;;22.35;15.02;;;23.10;99.90;;;;;;5085919;28;20179;-78
2023/09/13 08:22:37;;;;;;;19.73;14.63;;;23.20;99.90;;;;;;5080914;28;20174;-78
2023/09/13 08:25:04;;;;;;;21.48;14.98;;;23.30;99.90;;;;;;5076294;28;20203;-78
2023/09/13 08:27:30;;;;;;;19.50;14.40;;;23.30;99.90;;;;;;5089294;28;20168;-78
2023/09/13 08:29:56;;;;;;;19.80;14.18;;;23.40;99.90;;;;;;5083625;28;20591;-77
2023/09/13 08:32:22;;;;;;;17.30;13.82;;;23.50;99.90;;;;;;5075550;28;20170;-79
2023/09/13 08:34:49;;;;;;;17.45;13.95;;;23.60;99.90;;;;;;5074866;28;20763;-79
2023/09/13 08:37:15;;;;;;;18.70;14.45;;;23.70;99.90;;;;;;5073938;28;20175;-77
2023/09/13 08:39:41;;;;;;;21.13;13.50;;;23.90;99.90;;;;;;5056017;28;20202;-77
2023/09/13 08:42:09;;;;;;;18.25;13.32;;;;;;;;;;5074612;28;20175;-77
2023/09/13 08:44:37;;;;;;;19.35;14.48;;;;;;;;;;5074587;28;20206;-79
2023/09/13 08:47:04;;;;;;;16.27;13.88;;;;;;;;;;5075050;28;20246;-78
2023/09/13 08:49:33;;;;;;;18.90;13.50;;;;;;;;;;5058950;28;20186;-79
2023/09/13 08:52:00;;;;;;;19.73;12.98;;;;;;;;;;5077171;28;20167;-78
2023/09/13 08:54:27;;;;;;;13.88;11.27;;;;;;;;;;5057922;28;20182;-77
2023/09/13 08:56:58;;;;;;;13.07;11.57;;;;;;;;;;5078872;28;20696;-77
2023/09/13 08:59:25;;;;;;;16.80;12.50;;;;;;;;;;5061375;28;20190;-77
2023/09/13 09:01:53;;;;;;;13.82;11.40;;;;;;;;;;5078163;28;20178;-78
2023/09/13 09:04:21;;;;;;;13.10;11.70;;;;;;;;;;5077982;28;20171;-77
2023/09/13 09:06:49;;;;;;;16.80;11.90;;;;;;;;;;5078116;28;20171;-76
2023/09/13 09:09:20;;;;;;;12.93;11.55;;;;;;;;;;5078033;28;20178;-76
2023/09/13 09:11:50;;;;;;;15.90;11.98;;;;;;;;;;5077640;28;20178;-79
2023/09/13 09:14:17;;;;;;;14.25;11.00;;;;;;;;;;5063966;28;20235;-77
2023/09/13 09:16:45;;;;;;;14.93;12.70;;;;;;;;;;5091670;28;20175;-78
2023/09/13 09:19:13;;;;;;;11.65;10.60;;;;;;;;;;5061189;28;20261;-78
2023/09/13 09:21:40;;;;;;;13.20;11.57;;;;;;;;;;5061234;28;20590;-76
2023/09/13 09:24:07;;;;;;;14.70;11.15;;;;;;;;;;5078493;28;20167;-78
2023/09/13 09:26:34;;;;;;;13.27;11.88;;;;;;;;;;5078463;28;20229;-77
2023/09/13 09:29:11;;;;;;;11.63;10.43;;;;;;;;;;5078108;28;20178;-78
2023/09/13 09:31:41;;;;;;;13.57;10.82;;;;;;;;;;5078304;28;20660;-76
2023/09/13 09:34:10;;;;;;;13.40;11.30;;;;;;;;;;5079571;28;20254;-77
2023/09/13 09:36:41;;;;;;;14.38;11.20;;;;;;;;;;5079734;28;20167;-78
2023/09/13 09:39:08;;;;;;;14.27;11.10;;;;;;;;;;5061415;28;20556;-79
2023/09/13 09:41:37;;;;;;;13.88;11.40;;;;;;;;;;5081100;28;20171;-78
2023/09/13 09:44:05;;;;;;;13.98;11.52;;;;;;;;;;5061872;28;20595;-78
2023/09/13 09:46:33;;;;;;;14.70;12.40;;;;;;;;;;5079602;28;20591;-78
2023/09/13 09:49:04;;;;;;;12.77;11.43;;;;;;;;;;5078948;28;20174;-79
2023/09/13 09:51:31;;;;;;;12.52;10.95;;;;;;;;;;5082010;28;20246;-80
2023/09/13 09:53:58;;;;;;;13.65;11.20;;;;;;;;;;5080026;28;20625;-80
2023/09/13 09:56:26;;;;;;;13.55;10.27;;;;;;;;;;5085902;28;20163;-79
2023/09/13 09:58:53;;;;;;;11.80;10.77;;;;;;;;;;5084766;28;20257;-77
2023/09/13 10:01:20;;;;;;;15.98;11.38;;;;;;;;;;5083702;28;20203;-79
2023/09/13 10:03:47;;;;;;;12.40;11.15;;;;;;;;;;5085929;28;20167;-79
2023/09/13 10:06:15;;;;;;;13.13;10.77;;;;;;;;;;5092600;28;20241;-77
2023/09/13 10:08:44;;;;;;;13.73;10.45;;;;;;;;;;5063288;28;20266;-78
2023/09/13 10:11:13;;;;;;;13.05;10.80;;;;;;;;;;5060644;28;20175;-76
2023/09/13 10:13:40;;;;;;;11.23;10.20;;;;;;;;;;5078262;28;20167;-80
2023/09/13 10:16:08;;;;;;;12.48;11.18;;;;;;;;;;5078168;28;20175;-78
2023/09/13 10:18:46;;;;;;;12.00;10.27;;;;;;;;;;5059514;28;20201;-76
2023/09/13 10:21:15;;;;;;;12.27;10.98;;;;;;;;;;5077611;28;20502;-79
2023/09/13 10:23:43;;;;;;;12.20;10.30;;;;;;;;;;5078043;28;20159;-78
2023/09/13 10:26:13;;;;;;;12.23;10.88;;;;;;;;;;5075284;28;20195;-77
2023/09/13 10:28:42;;;;;;;12.63;11.50;;;;;;;;;;5075569;28;20167;-77
2023/09/13 10:31:32;;;;;;;12.85;11.65;;;;;;;;;;5057859;28;20582;-77
2023/09/13 10:34:01;;;;;;;13.65;10.85;;;;;;;;;;5054921;28;20219;-77
2023/09/13 10:36:55;;;;;;;12.18;10.98;;;;;;;;;;5075594;28;20545;-76
2023/09/13 10:39:31;;;;;;;12.52;10.40;;;;;;;;;;5060417;28;20552;-78
2023/09/13 10:42:10;;;;;;;12.52;11.13;;;;;;;;;;5057730;28;20167;-77
2023/09/13 10:44:38;;;;;;;13.68;12.27;;;;;;;;;;5078546;28;20171;-78
2023/09/13 10:47:06;;;;;;;13.20;11.82;;;;;;;;;;5064547;28;20206;-77
2023/09/13 10:49:34;;;;;;;12.15;10.85;;;;;;;;;;5070009;28;20179;-80
2023/09/13 10:52:01;;;;;;;13.20;11.02;;;;;;;;;;5080926;28;20178;-77
2023/09/13 10:54:29;;;;;;;11.82;10.73;;;;;;;;;;5077574;28;20171;-77
2023/09/13 10:56:57;;;;;;;11.55;10.48;;;;;;;;;;5076030;28;20167;-75
2023/09/13 10:59:25;;;;;;;13.00;11.45;;;;;;;;;;5057338;28;20248;-77
2023/09/13 11:01:53;;;;;;;11.88;10.70;;;;;;;;;;5075297;28;20170;-78
2023/09/13 11:04:23;;;;;;;10.82;9.90;;;;;;;;;;5075310;28;20179;-77
2023/09/13 11:06:53;;;;;;;11.70;10.02;;;;;;;;;;5075124;28;20195;-78
2023/09/13 11:09:27;;;;;;;10.70;9.82;;;;;;;;;;5077173;28;20553;-76
2023/09/13 11:11:54;;;;;;;10.80;9.77;;;;;;;;;;5078572;28;20167;-77
2023/09/13 11:14:28;;;;;;;11.10;10.13;;;;;;;;;;5076322;28;20199;-79
2023/09/13 11:16:57;;;;;;;11.77;10.13;;;;;;;;;;5076343;28;20792;-77
2023/09/13 11:19:35;;;;;;;10.68;9.68;;;;;;;;;;5075439;28;20274;-79
2023/09/13 11:22:03;;;;;;;11.40;10.27;;;;;;;;;;5075998;28;20224;-78
2023/09/13 11:24:43;;;;;;;10.40;9.50;;;27.10;99.90;;;;;;5076753;28;20832;-78
2023/09/13 11:27:14;;;;;;;10.13;9.32;;;27.40;99.90;;;;;;5079792;28;20244;-78
2023/09/13 11:29:50;;;;;;;10.57;9.40;;;27.50;99.90;;;;;;5078084;28;20213;-77
2023/09/13 11:32:20;;;;;;;10.75;9.68;;;27.80;99.90;;;;;;5077669;28;20607;-78
2023/09/13 11:34:55;;;;;;;11.40;10.25;;;27.90;99.90;;;;;;5077269;28;20582;-78
2023/09/13 11:37:27;;;;;;;10.25;9.35;;;27.90;99.90;;;;;;5076562;28;20162;-78
2023/09/13 11:39:54;;;;;;;10.45;9.45;;;28.10;99.90;;;;;;5076175;28;20160;-78
2023/09/13 11:42:28;;;;;;;11.60;10.05;;;28.10;99.90;;;;;;5077396;28;20266;-80
2023/09/13 11:44:58;;;;;;;11.50;10.40;;;28.10;99.90;;;;;;5079312;28;20228;-78
2023/09/13 11:47:27;;;;;;;10.50;9.60;;;28.10;99.90;;;;;;5076941;28;20213;-78
2023/09/13 11:49:57;;;;;;;11.70;10.70;;;28.10;99.90;;;;;;5076256;28;20191;-78
2023/09/13 11:52:23;;;;;;;10.65;9.57;;;28.10;99.90;;;;;;5075868;28;20166;-77
2023/09/13 11:54:58;;;;;;;10.70;9.63;;;28.10;99.90;;;;;;5074907;28;20172;-79
2023/09/13 11:57:48;;;;;;;10.77;9.88;;;27.50;99.90;;;;;;5063205;28;20178;-79
2023/09/13 12:00:19;;;;;;;11.13;10.23;;;27.50;99.90;;;;;;5077996;28;20160;-77
2023/09/13 12:02:45;;;;;;;11.85;9.77;;;27.90;99.90;;;;;;5076937;28;20158;-77
2023/09/13 12:05:12;;;;;;;12.77;10.50;;;27.80;99.90;;;;;;5075616;28;20183;-78
2023/09/13 12:07:38;;;;;;;10.80;9.40;;;27.70;99.90;;;;;;5077463;28;20179;-77
2023/09/13 12:10:05;;;;;;;10.10;9.07;;;27.50;99.90;;;;;;5086559;28;20190;-77
2023/09/13 12:12:42;;;;;;;10.15;9.23;;;27.50;99.90;;;;;;5083684;28;20182;-77
2023/09/13 12:15:15;;;;;;;10.57;9.68;;;27.50;99.90;;;;;;5074878;28;20167;-78
2023/09/13 12:17:41;;;;;;;11.10;10.20;;;27.40;99.90;;;;;;5056867;28;20513;-76
2023/09/13 12:20:10;;;;;;;10.55;9.55;;;27.50;99.90;;;;;;5076408;28;20281;-78
2023/09/13 12:22:40;;;;;;;10.73;9.45;;;27.10;99.90;;;;;;5065637;28;20642;-79
2023/09/13 12:25:10;;;;;;;11.25;10.10;;;27.20;99.90;;;;;;5080440;28;20179;-78
2023/09/13 12:27:45;;;;;;;11.88;10.60;;;27.20;99.90;;;;;;5076904;28;20175;-77
2023/09/13 12:30:20;;;;;;;10.23;9.27;;;27.20;99.90;;;;;;5061891;28;20178;-78
2023/09/13 12:32:48;;;;;;;10.55;9.57;;;27.20;99.90;;;;;;5076029;28;20533;-79
2023/09/13 12:35:17;;;;;;;10.98;9.77;;;27.30;99.90;;;;;;5075915;28;20207;-77
2023/09/13 12:37:58;;;;;;;10.63;9.23;;;27.30;99.90;;;;;;5076538;28;20171;-77
2023/09/13 12:40:27;;;;;;;10.70;9.80;;;27.80;99.90;;;;;;5075208;28;20612;-77
2023/09/13 12:42:56;;;;;;;10.63;9.30;;;27.20;99.90;;;;;;5057035;28;20179;-77
2023/09/13 12:45:22;;;;;;;9.55;8.73;;;27.40;99.90;;;;;;5074069;28;20237;-78
2023/09/13 12:47:49;;;;;;;13.30;9.95;;;27.40;99.90;;;;;;5074378;28;20615;-78
2023/09/13 12:50:15;;;;;;;10.65;9.75;;;27.40;99.90;;;;;;5074340;28;20167;-79
2023/09/13 12:52:42;;;;;;;10.20;9.38;;;27.60;99.90;;;;;;5073914;28;20167;-78